Time;durP1;ratioP1;P1;durP2;ratioP2;P2;SDS_P1;SDS_P2;PMS_P1;PMS_P2;Temp;Humidity;BMP_temperature;BMP_pressure;BME280_temperature;BME280_humidity;BME280_pressure;Samples;Min_cycle;Max_cycle;Signal;HPM_P1;HPM_P2
2023/07/15 00:01:27;;;;;;;7.40;3.50;;;;;;;;;;4989780;28;20221;-58
2023/07/15 00:03:53;;;;;;;7.95;3.50;;;;;;;;;;4970314;28;20288;-58
2023/07/15 00:06:18;;;;;;;7.68;3.80;;;;;;;;;;4990002;28;20332;-58
2023/07/15 00:08:44;;;;;;;8.18;3.83;;;;;;;;;;4989782;28;20209;-58
2023/07/15 00:11:22;;;;;;;9.65;3.30;;;;;;;;;;4988243;28;20213;-58
2023/07/15 00:13:47;;;;;;;5.72;3.42;;;;;;;;;;4988584;28;20774;-58
2023/07/15 00:16:13;;;;;;;7.13;3.13;;;;;;;;;;4989589;28;20244;-58
2023/07/15 00:18:38;;;;;;;9.40;3.50;;;;;;;;;;4989836;28;20225;-58
2023/07/15 00:21:09;;;;;;;7.40;3.50;;;;;;;;;;4987539;28;20219;-59
2023/07/15 00:23:35;;;;;;;9.02;3.30;;;;;;;;;;4971957;28;20221;-58
2023/07/15 00:26:00;;;;;;;7.70;3.00;;;;;;;;;;4989347;28;20240;-59
2023/07/15 00:28:25;;;;;;;6.75;2.90;;;;;;;;;;4988680;28;20212;-58
2023/07/15 00:30:55;;;;;;;9.00;3.45;;;;;;;;;;4988503;28;20308;-58
2023/07/15 00:33:20;;;;;;;7.28;2.80;;;;;;;;;;4988986;28;20295;-59
2023/07/15 00:35:46;;;;;;;7.43;3.20;;;;;;;;;;4989901;28;20217;-58
2023/07/15 00:38:11;;;;;;;9.82;3.30;;;;;;;;;;4986896;28;20216;-58
2023/07/15 00:40:38;;;;;;;5.95;2.80;;;;;;;;;;4989354;28;20213;-59
2023/07/15 00:43:22;;;;;;;6.68;2.90;;;;;;;;;;4988922;28;20551;-58
2023/07/15 00:46:06;;;;;;;8.63;2.97;;;;;;;;;;4988256;28;20703;-58
2023/07/15 00:48:31;;;;;;;9.07;3.20;;;;;;;;;;4987257;28;20216;-58
2023/07/15 00:50:56;;;;;;;6.35;3.05;;;;;;;;;;4972283;28;20217;-58
2023/07/15 00:53:21;;;;;;;8.43;3.25;;;;;;;;;;4988559;28;20221;-58
2023/07/15 00:55:47;;;;;;;7.63;3.33;;;;;;;;;;4987612;28;20315;-58
2023/07/15 00:58:12;;;;;;;5.85;2.80;;;;;;;;;;4970710;28;20645;-59
2023/07/15 01:00:37;;;;;;;5.32;2.80;;;;;;;;;;4989163;28;20848;-59
2023/07/15 01:03:03;;;;;;;6.85;3.05;;;;;;;;;;4988111;28;20527;-59
2023/07/15 01:05:28;;;;;;;5.63;2.78;;;;;;;;;;4970347;28;20224;-58
2023/07/15 01:07:53;;;;;;;5.50;2.78;;;;;;;;;;4988788;28;20229;-58
2023/07/15 01:10:19;;;;;;;8.55;2.78;;;;;;;;;;4988324;28;20217;-58
2023/07/15 01:12:44;;;;;;;5.05;2.67;;;;;;;;;;4986418;28;20244;-58
2023/07/15 01:15:09;;;;;;;4.63;2.50;;;;;;;;;;4986989;28;20252;-59
2023/07/15 01:17:35;;;;;;;7.32;2.70;;;;;;;;;;4989440;28;20296;-59
2023/07/15 01:20:00;;;;;;;5.82;2.60;;;;;;;;;;4987301;28;20220;-58
2023/07/15 01:22:25;;;;;;;6.45;2.90;;;;;;;;;;4987485;28;20220;-59
2023/07/15 01:24:51;;;;;;;8.13;2.70;;;;;;;;;;4973601;28;20213;-58
2023/07/15 01:27:16;;;;;;;5.57;2.40;;;;;;;;;;4989899;28;20232;-58
2023/07/15 01:29:43;;;;;;;5.32;2.45;;;;;;;;;;4987587;28;20217;-58
2023/07/15 01:32:08;;;;;;;6.78;2.60;;;;;;;;;;4987613;28;20755;-59
2023/07/15 01:34:33;;;;;;;8.93;2.80;;;;;;;;;;4988589;28;20215;-58
2023/07/15 01:37:00;;;;;;;5.82;2.72;;;;;;;;;;4987947;28;20255;-58
2023/07/15 01:39:25;;;;;;;8.63;3.03;;;;;;;;;;4989889;28;20238;-59
2023/07/15 01:41:51;;;;;;;8.07;2.72;;;;;;;;;;4990663;28;20340;-58
2023/07/15 01:44:16;;;;;;;6.43;2.55;;;;;;;;;;4986012;28;20260;-58
2023/07/15 01:46:41;;;;;;;5.18;2.10;;;;;;;;;;4988529;28;20213;-58
2023/07/15 01:49:07;;;;;;;7.68;2.60;;;;;;;;;;4987730;28;20263;-58
2023/07/15 01:51:33;;;;;;;5.68;2.47;;;;;;;;;;4987229;28;20242;-58
2023/07/15 01:53:58;;;;;;;6.45;2.45;;;;;;;;;;4987631;28;20208;-58
2023/07/15 01:56:24;;;;;;;6.25;2.38;;;;;;;;;;4987432;28;20223;-58
2023/07/15 01:58:49;;;;;;;5.63;2.60;;;;;;;;;;4987945;28;20209;-58
2023/07/15 02:01:14;;;;;;;6.93;2.50;;;;;;;;;;4986304;28;20225;-58
2023/07/15 02:03:40;;;;;;;7.50;2.38;;;;;;;;;;4987784;28;20213;-58
2023/07/15 02:06:05;;;;;;;5.20;2.63;;;;;;;;;;4987875;28;20225;-58
2023/07/15 02:08:32;;;;;;;9.63;2.47;;;;;;;;;;4985964;28;20726;-58
2023/07/15 02:10:57;;;;;;;7.78;2.55;;;;;;;;;;4976135;28;20245;-58
2023/07/15 02:13:23;;;;;;;5.85;2.30;;;;;;;;;;4977523;28;20317;-58
2023/07/15 02:15:48;;;;;;;6.55;2.55;;;;;;;;;;4977361;28;20220;-58
2023/07/15 02:18:13;;;;;;;6.25;2.33;;;;;;;;;;4975191;28;20220;-58
2023/07/15 02:20:39;;;;;;;5.22;2.38;;;;;;;;;;4971191;28;20339;-58
2023/07/15 02:23:04;;;;;;;5.28;2.45;;;;;;;;;;4973536;28;20445;-58
2023/07/15 02:25:30;;;;;;;4.70;2.25;;;;;;;;;;4973581;28;20251;-58
2023/07/15 02:27:57;;;;;;;4.50;2.40;;;;;;;;;;4982354;28;20205;-58
2023/07/15 02:30:22;;;;;;;3.90;2.20;;;;;;;;;;4981359;28;21279;-58
2023/07/15 02:32:48;;;;;;;5.90;2.63;;;;;;;;;;4980962;28;20338;-58
2023/07/15 02:35:13;;;;;;;7.15;2.47;;;;;;;;;;4981022;28;20290;-58
2023/07/15 02:37:39;;;;;;;6.57;2.60;;;;;;;;;;4982488;28;20236;-58
2023/07/15 02:40:05;;;;;;;7.03;2.95;;;;;;;;;;4980250;28;20201;-58
2023/07/15 02:42:33;;;;;;;5.40;2.30;;;;;;;;;;4974825;28;20220;-58
2023/07/15 02:44:59;;;;;;;5.47;2.60;;;;;;;;;;4973912;28;20298;-58
2023/07/15 02:47:24;;;;;;;6.82;2.65;;;;;;;;;;4973166;28;20274;-58
2023/07/15 02:49:50;;;;;;;5.00;2.50;;;;;;;;;;4978574;28;20214;-58
2023/07/15 02:52:15;;;;;;;9.15;2.75;;;;;;;;;;4981364;28;20621;-58
2023/07/15 02:54:40;;;;;;;4.63;2.33;;;;;;;;;;4982265;28;20803;-58
2023/07/15 02:57:06;;;;;;;4.43;2.42;;;;;;;;;;4979754;28;20524;-58
2023/07/15 02:59:34;;;;;;;7.20;2.22;;;;;;;;;;4980204;28;20252;-58
2023/07/15 03:01:59;;;;;;;5.65;2.25;;;;;;;;;;4981896;28;20201;-58
2023/07/15 03:04:24;;;;;;;5.03;2.38;;;;;;;;;;4976784;28;20348;-59
2023/07/15 03:06:52;;;;;;;5.40;2.50;;;;;;;;;;4971587;28;20280;-58
2023/07/15 03:09:18;;;;;;;5.90;2.40;;;;;;;;;;4973877;28;21019;-58
2023/07/15 03:11:43;;;;;;;7.00;2.35;;;;;;;;;;4977764;28;20220;-58
2023/07/15 03:14:08;;;;;;;4.05;2.13;;;;;;;;;;4978953;28;20812;-58
2023/07/15 03:16:33;;;;;;;5.35;2.38;;;;;;;;;;4981392;28;20275;-58
2023/07/15 03:18:59;;;;;;;5.30;2.53;;;;;;;;;;4981658;28;20299;-58
2023/07/15 03:21:24;;;;;;;6.80;2.30;;;;;;;;;;4979631;28;20249;-58
2023/07/15 03:23:49;;;;;;;5.32;2.38;;;;;;;;;;4980536;28;20602;-58
2023/07/15 03:26:15;;;;;;;4.80;2.33;;;;;;;;;;4978967;28;20228;-58
2023/07/15 03:28:40;;;;;;;7.55;2.40;;;;;;;;;;4973294;28;20398;-58
2023/07/15 03:31:06;;;;;;;6.15;2.53;;;;;;;;;;4972615;28;20416;-58
2023/07/15 03:33:31;;;;;;;5.97;2.50;;;;;;;;;;4974360;28;20217;-58
2023/07/15 03:35:58;;;;;;;5.40;2.17;;;;;;;;;;4980992;28;20688;-58
2023/07/15 03:38:23;;;;;;;8.63;2.80;;;;;;;;;;4979325;28;20239;-58
2023/07/15 03:40:49;;;;;;;5.50;2.33;;;;;;;;;;4980594;28;20221;-58
2023/07/15 03:43:15;;;;;;;5.60;2.10;;;;;;;;;;4980172;28;20228;-58
2023/07/15 03:45:40;;;;;;;6.60;2.50;;;;;;;;;;4979590;28;20217;-58
2023/07/15 03:48:05;;;;;;;5.32;2.30;;;;;;;;;;4979109;28;20225;-58
2023/07/15 03:50:30;;;;;;;6.57;2.38;;;;;;;;;;4974393;28;20238;-58
2023/07/15 03:52:56;;;;;;;5.35;2.58;;;;;;;;;;4972884;28;20213;-58
2023/07/15 03:55:21;;;;;;;4.03;2.13;;;;;;;;;;4970467;28;20479;-58
2023/07/15 03:57:46;;;;;;;6.68;2.40;;;;;;;;;;4978842;28;20267;-58
2023/07/15 04:00:17;;;;;;;5.03;2.20;;;;;;;;;;4980216;28;20585;-58
2023/07/15 04:02:44;;;;;;;4.50;2.13;;;;;;;;;;4979468;28;20232;-58
2023/07/15 04:05:10;;;;;;;4.43;2.10;;;;;;;;;;4978991;28;20570;-58
2023/07/15 04:07:35;;;;;;;4.15;2.30;;;;;;;;;;4980748;28;20644;-58
2023/07/15 04:10:01;;;;;;;5.53;2.20;;;;;;;;;;4979024;28;20224;-59
2023/07/15 04:12:26;;;;;;;5.53;2.60;;;;;;;;;;4974486;28;20213;-58
2023/07/15 04:14:51;;;;;;;5.90;2.50;;;;;;;;;;4972908;28;20259;-58
2023/07/15 04:17:16;;;;;;;5.13;2.25;;;;;;;;;;4971107;28;20578;-58
2023/07/15 04:19:42;;;;;;;4.90;2.20;;;;;;;;;;4975098;28;20295;-58
2023/07/15 04:22:07;;;;;;;5.15;2.53;;;;;;;;;;4979190;28;20967;-59
2023/07/15 04:24:33;;;;;;;4.43;2.50;;;;;;;;;;4980121;28;20570;-58
2023/07/15 04:26:58;;;;;;;5.40;2.50;;;;;;;;;;4979094;28;20730;-58
2023/07/15 04:29:24;;;;;;;6.75;2.20;;;;;;;;;;4978398;28;20564;-58
2023/07/15 04:31:49;;;;;;;6.60;2.30;;;;;;;;;;4979634;28;20202;-58
2023/07/15 04:34:14;;;;;;;6.35;2.65;;;;;;;;;;4977853;28;20217;-58
2023/07/15 04:36:40;;;;;;;9.98;2.90;;;;;;;;;;4970164;28;20224;-58
2023/07/15 04:39:05;;;;;;;3.80;1.95;;;;;;;;;;4971776;28;20311;-59
2023/07/15 04:41:31;;;;;;;5.55;2.40;;;;;;;;;;4973736;28;20205;-58
2023/07/15 04:43:56;;;;;;;6.80;2.53;;;;;;;;;;4977330;28;20275;-58
2023/07/15 04:46:22;;;;;;;7.38;2.28;;;;;;;;;;4978137;28;20284;-58
2023/07/15 04:48:47;;;;;;;4.10;2.10;;;;;;;;;;4979639;28;20676;-58
2023/07/15 04:51:12;;;;;;;5.97;2.35;;;;;;;;;;4978387;28;20209;-59
2023/07/15 04:53:43;;;;;;;7.80;2.20;;;;;;;;;;4977880;28;20316;-58
2023/07/15 04:56:09;;;;;;;3.80;2.30;;;;;;;;;;4979078;28;20225;-58
2023/07/15 04:58:34;;;;;;;5.43;2.20;;;;;;;;;;4973292;28;20307;-58
2023/07/15 05:01:00;;;;;;;5.45;2.25;;;;;;;;;;4969018;28;20231;-58
2023/07/15 05:03:25;;;;;;;4.80;2.40;;;;;;;;;;4971288;28;20756;-59
2023/07/15 05:05:51;;;;;;;3.88;2.30;;;;;;;;;;4978033;28;20248;-58
2023/07/15 05:08:17;;;;;;;4.15;2.22;;;;;;;;;;4977470;28;20224;-58
2023/07/15 05:10:43;;;;;;;7.45;2.70;;;;;;;;;;4978412;28;20224;-58
2023/07/15 05:13:08;;;;;;;5.72;2.53;;;;;;;;;;4978690;28;20209;-58
2023/07/15 05:15:40;;;;;;;5.72;2.63;;;;;;;;;;4979237;28;20228;-58
2023/07/15 05:18:06;;;;;;;6.50;2.65;;;;;;;;;;4976492;28;20217;-59
2023/07/15 05:20:33;;;;;;;5.75;2.33;;;;;;;;;;4974502;28;20727;-58
2023/07/15 05:22:58;;;;;;;7.10;2.50;;;;;;;;;;4971154;28;20264;-58
2023/07/15 05:25:24;;;;;;;4.85;2.60;;;;;;;;;;4969625;28;20339;-58
2023/07/15 05:27:49;;;;;;;4.70;2.40;;;;;;;;;;4975239;28;20225;-59
2023/07/15 05:30:15;;;;;;;6.35;2.08;;;;;;;;;;4978809;28;20221;-59
2023/07/15 05:32:40;;;;;;;6.10;2.40;;;;;;;;;;4977805;28;20300;-58
2023/07/15 05:35:06;;;;;;;4.60;2.28;;;;;;;;;;4976751;28;20268;-59
2023/07/15 05:37:31;;;;;;;7.35;2.63;;;;;;;;;;4979152;28;20351;-58
2023/07/15 05:39:56;;;;;;;6.90;3.10;;;;;;;;;;4978748;28;20275;-58
2023/07/15 05:42:22;;;;;;;6.13;2.60;;;;;;;;;;4973099;28;20271;-59
2023/07/15 05:44:47;;;;;;;7.70;4.00;;;;;;;;;;4971409;28;20268;-59
2023/07/15 05:47:12;;;;;;;7.47;2.75;;;;;;;;;;4970364;28;20221;-59
2023/07/15 05:49:38;;;;;;;5.88;2.97;;;;;;;;;;4971684;28;20404;-60
2023/07/15 05:52:03;;;;;;;6.17;2.70;;;;;;;;;;4979340;28;20417;-59
2023/07/15 05:54:28;;;;;;;7.32;2.40;;;;;;;;;;4981177;28;20221;-60
2023/07/15 05:56:54;;;;;;;6.85;3.00;;;;;;;;;;4980003;28;20598;-60
2023/07/15 05:59:19;;;;;;;9.80;3.42;;;;;;;;;;4980741;28;20259;-59
2023/07/15 06:01:45;;;;;;;6.30;3.15;;;;;;;;;;4981200;28;20268;-59
2023/07/15 06:04:10;;;;;;;7.72;3.05;;;;;;;;;;4980144;28;20300;-60
2023/07/15 06:06:36;;;;;;;6.60;2.90;;;;;;;;;;4955547;28;20237;-59
2023/07/15 06:09:01;;;;;;;8.82;2.65;;;;;;;;;;4973519;28;20379;-59
2023/07/15 06:11:27;;;;;;;8.45;3.00;;;;;;;;;;4973393;28;20209;-59
2023/07/15 06:13:52;;;;;;;6.82;2.63;;;;;;;;;;4980391;28;20216;-59
2023/07/15 06:16:17;;;;;;;9.93;2.72;;;;;;;;;;4979890;28;20228;-59
2023/07/15 06:18:43;;;;;;;6.90;3.15;;;;;;;;;;4980971;28;20208;-59
2023/07/15 06:21:08;;;;;;;7.57;2.70;;;;;;;;;;4980691;28;20728;-59
2023/07/15 06:23:33;;;;;;;6.30;2.50;;;;;;;;;;4981269;28;20212;-59
2023/07/15 06:25:59;;;;;;;6.35;2.90;;;;;;;;;;4976967;28;20839;-60
2023/07/15 06:28:24;;;;;;;6.30;2.38;;;;;;;;;;4973966;28;20278;-59
2023/07/15 06:30:50;;;;;;;5.30;2.80;;;;;;;;;;4968911;28;20595;-60
2023/07/15 06:33:15;;;;;;;10.25;2.50;;;;;;;;;;4970545;28;20311;-59
2023/07/15 06:35:41;;;;;;;7.18;2.95;;;;;;;;;;4977191;28;20212;-59
2023/07/15 06:38:06;;;;;;;9.38;2.80;;;;;;;;;;4974417;28;20803;-59
2023/07/15 06:40:32;;;;;;;6.20;2.40;;;;;;;;;;4980069;28;20205;-59
2023/07/15 06:42:57;;;;;;;7.22;2.50;;;;;;;;;;4986088;28;20209;-60
2023/07/15 06:45:23;;;;;;;7.20;2.35;;;;;;;;;;4979700;28;20268;-59
2023/07/15 06:47:49;;;;;;;6.57;2.50;;;;;;;;;;4970120;28;20286;-59
2023/07/15 06:50:14;;;;;;;5.32;2.10;;;;;;;;;;4987260;28;20221;-59
2023/07/15 06:52:40;;;;;;;4.60;2.20;;;;;;;;;;4986211;28;20626;-59
2023/07/15 06:55:05;;;;;;;5.85;2.50;;;;;;;;;;4986282;28;20228;-59
2023/07/15 06:57:31;;;;;;;5.32;2.05;;;;;;;;;;4987802;28;20300;-59
2023/07/15 06:59:57;;;;;;;4.60;2.20;;;;;;;;;;4986862;28;20232;-58
2023/07/15 07:02:22;;;;;;;7.13;2.22;;;;;;;;;;4985172;28;20214;-58
2023/07/15 07:04:47;;;;;;;7.43;2.13;;;;;;;;;;4986666;28;20297;-59
2023/07/15 07:07:13;;;;;;;4.65;2.20;;;;;;;;;;4987619;28;20258;-59
2023/07/15 07:09:38;;;;;;;4.57;2.00;;;;;;;;;;4989255;28;20696;-58
2023/07/15 07:12:04;;;;;;;5.93;2.10;;;;;;;;;;4991021;28;20756;-59
2023/07/15 07:14:29;;;;;;;5.85;2.03;;;;;;;;;;4990713;28;20288;-59
2023/07/15 07:16:54;;;;;;;5.28;2.35;;;;;;;;;;4990253;28;20205;-59
2023/07/15 07:19:19;;;;;;;3.22;1.42;;;;;;;;;;4989422;28;20315;-59
2023/07/15 07:21:45;;;;;;;5.82;1.70;;;;;;;;;;4991014;28;20308;-58
2023/07/15 07:24:10;;;;;;;3.38;1.48;;;;;;;;;;4990426;28;20236;-59
2023/07/15 07:26:36;;;;;;;4.18;1.70;;;;;;;;;;4988582;28;20307;-59
2023/07/15 07:29:01;;;;;;;6.35;1.70;;;;;;;;;;4990478;28;20212;-60
2023/07/15 07:31:26;;;;;;;4.68;1.70;;;;;;;;;;4990695;28;20235;-59
2023/07/15 07:33:52;;;;;;;5.10;1.77;;;;;;;;;;4988437;28;20249;-59
2023/07/15 07:36:17;;;;;;;5.15;1.48;;;;;;;;;;4989822;28;20316;-58
2023/07/15 07:38:44;;;;;;;5.75;1.60;;;;;;;;;;4990955;28;20236;-60
2023/07/15 07:41:10;;;;;;;3.05;1.50;;;;;;;;;;4989055;28;20235;-59
2023/07/15 07:43:35;;;;;;;4.90;1.70;;;;;;;;;;4987922;28;20217;-59
2023/07/15 07:46:01;;;;;;;3.92;1.75;;;;;;;;;;4989480;28;20662;-60
2023/07/15 07:48:27;;;;;;;4.47;1.60;;;;;;;;;;4989122;28;20217;-59
2023/07/15 07:50:52;;;;;;;4.32;1.73;;;;;;;;;;4987481;28;20574;-59
2023/07/15 07:53:18;;;;;;;5.55;1.83;;;;;;;;;;4989397;28;20209;-59
2023/07/15 07:55:43;;;;;;;4.72;1.80;;;;;;;;;;4990278;28;20600;-59
2023/07/15 07:58:08;;;;;;;2.05;1.50;;;;;;;;;;4988050;28;20551;-60
2023/07/15 08:00:34;;;;;;;3.75;1.90;;;;;;;;;;4989685;28;20296;-59
2023/07/15 08:02:59;;;;;;;3.72;1.75;;;;;;;;;;4990034;28;20681;-60
2023/07/15 08:05:24;;;;;;;5.22;2.15;;;;;;;;;;4989145;28;20632;-60
2023/07/15 08:07:50;;;;;;;4.43;1.50;;;;;;;;;;4988511;28;20566;-59
2023/07/15 08:10:15;;;;;;;8.57;1.75;;;;;;;;;;4989022;28;20225;-60
2023/07/15 08:12:41;;;;;;;4.57;1.63;;;;;;;;;;4991930;28;20216;-60
2023/07/15 08:15:06;;;;;;;5.60;2.10;;;;;;;;;;4992426;28;20219;-60
2023/07/15 08:17:32;;;;;;;5.93;1.92;;;;;;;;;;4988299;28;20224;-60
2023/07/15 08:19:57;;;;;;;4.75;2.10;;;;;;;;;;4989313;28;20244;-59
2023/07/15 08:22:22;;;;;;;4.78;2.00;;;;;;;;;;4990243;28;20310;-59
2023/07/15 08:24:48;;;;;;;5.72;1.75;;;;;;;;;;4988968;28;20303;-60
2023/07/15 08:27:13;;;;;;;6.30;1.83;;;;;;;;;;4988888;28;20996;-60
2023/07/15 08:29:39;;;;;;;6.60;1.58;;;;;;;;;;4990447;28;20224;-59
2023/07/15 08:32:04;;;;;;;6.18;2.05;;;;;;;;;;4989460;28;20212;-59
2023/07/15 08:34:31;;;;;;;6.90;2.38;;;;;;;;;;4987974;28;20228;-60
2023/07/15 08:36:57;;;;;;;4.97;1.70;;;;;;;;;;4989842;28;20205;-60
2023/07/15 08:39:22;;;;;;;4.18;1.50;;;;;;;;;;4990026;28;20379;-60
2023/07/15 08:41:47;;;;;;;3.58;1.60;;;;;;;;;;4988227;28;20296;-59
2023/07/15 08:44:14;;;;;;;4.97;1.63;;;;;;;;;;4988178;28;20677;-60
2023/07/15 08:46:40;;;;;;;7.78;1.67;;;;;;;;;;4990032;28;20763;-60
2023/07/15 08:49:05;;;;;;;2.92;1.48;;;;;;;;;;4971460;28;20417;-60
2023/07/15 08:51:31;;;;;;;3.20;1.30;;;;;;;;;;4988286;28;20303;-60
2023/07/15 08:53:56;;;;;;;2.45;1.30;;;;;;;;;;4993121;28;20213;-59
2023/07/15 08:56:23;;;;;;;4.90;1.48;;;;;;;;;;4989181;28;20217;-59
2023/07/15 08:58:49;;;;;;;5.93;1.42;;;;;;;;;;4989775;28;20604;-59
2023/07/15 09:01:14;;;;;;;4.63;1.40;;;;;;;;;;4987299;28;20213;-60
2023/07/15 09:03:39;;;;;;;3.58;1.33;;;;;;;;;;4971935;28;20525;-59
2023/07/15 09:06:05;;;;;;;5.60;1.38;;;;;;;;;;4988804;28;20237;-60
2023/07/15 09:08:30;;;;;;;2.35;1.30;;;;;;;;;;4988638;28;20232;-60
2023/07/15 09:10:56;;;;;;;3.33;1.25;;;;;;;;;;4988339;28;20209;-60
2023/07/15 09:13:25;;;;;;;3.60;1.40;;;;;;;;;;4988228;28;20213;-60
2023/07/15 09:15:51;;;;;;;2.83;1.30;;;;;;;;;;4989596;28;20210;-59
2023/07/15 09:18:16;;;;;;;2.90;1.30;;;;;;;;;;4986681;28;20260;-60
2023/07/15 09:20:42;;;;;;;4.60;1.42;;;;;;;;;;4988966;28;20220;-60
2023/07/15 09:23:07;;;;;;;6.25;1.60;;;;;;;;;;4988756;28;20255;-60
2023/07/15 09:25:35;;;;;;;3.83;1.33;;;;;;;;;;4987962;28;20292;-59
2023/07/15 09:28:01;;;;;;;2.97;1.20;;;;;;;;;;4987521;28;20228;-61
2023/07/15 09:30:26;;;;;;;4.45;1.80;;;;;;;;;;4988817;28;20224;-59
2023/07/15 09:32:51;;;;;;;3.00;1.33;;;;;;;;;;4988876;28;20213;-59
2023/07/15 09:35:17;;;;;;;4.10;1.30;;;;;;;;;;4986484;28;20209;-60
2023/07/15 09:37:46;;;;;;;3.08;1.30;;;;;;;;;;4988735;28;20205;-59
2023/07/15 09:40:11;;;;;;;2.13;1.25;;;;;;;;;;4988219;28;20701;-60
2023/07/15 09:42:49;;;;;;;2.08;1.27;;;;;;;;;;4986888;28;20209;-60
2023/07/15 09:45:30;;;;;;;3.83;1.17;;;;;;;;;;4987569;28;20224;-59
2023/07/15 09:47:56;;;;;;;6.57;1.40;;;;;;;;;;4988697;28;20221;-60
2023/07/15 09:50:21;;;;;;;3.25;1.45;;;;;;;;;;4988530;28;20348;-59
2023/07/15 09:52:46;;;;;;;4.72;1.60;;;;;;;;;;4986119;28;20217;-59
2023/07/15 09:55:12;;;;;;;3.35;1.65;;;;;;;;;;4970695;28;20572;-59
2023/07/15 09:57:37;;;;;;;5.30;1.27;;;;;;;;;;4988844;28;20209;-60
2023/07/15 10:00:02;;;;;;;3.88;1.60;;;;;;;;;;4986601;28;20213;-60
2023/07/15 10:02:40;;;;;;;3.60;1.50;;;;;;;;;;4987806;28;20213;-59
2023/07/15 10:05:06;;;;;;;4.75;1.77;;;;;;;;;;4988410;28;20299;-60
2023/07/15 10:07:32;;;;;;;3.65;1.30;;;;;;;;;;4988703;28;20311;-59
2023/07/15 10:09:58;;;;;;;3.65;1.48;;;;;;;;;;4985857;28;20209;-59
2023/07/15 10:12:24;;;;;;;3.00;1.48;;;;;;;;;;4987927;28;20231;-60
2023/07/15 10:14:49;;;;;;;4.63;1.45;;;;;;;;;;4988761;28;20212;-59
2023/07/15 10:17:15;;;;;;;3.92;1.35;;;;;;;;;;4986302;28;20624;-60
2023/07/15 10:19:42;;;;;;;7.38;1.73;;;;;;;;;;4987921;28;20224;-59
2023/07/15 10:22:07;;;;;;;8.13;1.75;;;;;;;;;;4987812;28;20262;-60
2023/07/15 10:24:33;;;;;;;3.28;1.50;;;;;;;;;;4987514;28;20225;-59
2023/07/15 10:27:00;;;;;;;2.92;1.45;;;;;;;;;;4986666;28;20312;-59
2023/07/15 10:29:25;;;;;;;4.63;1.67;;;;;;;;;;4970208;28;20704;-59
2023/07/15 10:32:08;;;;;;;4.07;1.33;;;;;;;;;;4988934;28;20213;-60
2023/07/15 10:34:34;;;;;;;3.28;1.50;;;;;;;;;;4986434;28;20296;-60
2023/07/15 10:37:05;;;;;;;6.90;1.50;;;;;;;;;;4989917;28;20308;-59
2023/07/15 10:39:31;;;;;;;5.70;1.65;;;;;;;;;;4991166;28;20212;-60
2023/07/15 10:41:57;;;;;;;5.72;1.80;;;;;;;;;;4986023;28;20217;-60
2023/07/15 10:44:23;;;;;;;6.57;1.63;;;;;;;;;;4974464;28;20396;-60
2023/07/15 10:46:58;;;;;;;5.07;1.60;;;;;;;;;;4992128;28;20236;-60
2023/07/15 10:49:23;;;;;;;3.33;1.60;;;;;;;;;;4989946;28;20220;-60
2023/07/15 10:51:52;;;;;;;4.93;1.73;;;;;;;;;;4990842;28;20216;-60
2023/07/15 10:54:18;;;;;;;4.53;1.50;;;;;;;;;;4974352;28;20228;-59
2023/07/15 10:56:43;;;;;;;3.65;1.50;;;;;;;;;;4991955;28;20221;-60
2023/07/15 10:59:09;;;;;;;3.97;1.40;;;;;;;;;;4989105;28;20229;-60
2023/07/15 11:01:34;;;;;;;4.70;1.52;;;;;;;;;;4991773;28;20209;-60
2023/07/15 11:04:04;;;;;;;4.57;1.50;;;;;;;;;;4972206;28;20308;-60
2023/07/15 11:06:30;;;;;;;4.30;1.30;;;;;;;;;;4993174;28;20696;-60
2023/07/15 11:08:55;;;;;;;2.40;1.40;;;;;;;;;;4993184;28;20244;-60
2023/07/15 11:11:22;;;;;;;2.47;1.40;;;;;;;;;;4990558;28;20280;-60
2023/07/15 11:13:48;;;;;;;6.25;2.38;;;;;;;;;;4989511;28;20340;-60
2023/07/15 11:16:13;;;;;;;5.88;1.80;;;;;;;;;;4990025;28;20407;-59
2023/07/15 11:18:38;;;;;;;3.58;1.52;;;;;;;;;;4990813;28;20692;-59
2023/07/15 11:21:05;;;;;;;3.42;1.40;;;;;;;;;;4988130;28;20248;-60
2023/07/15 11:23:30;;;;;;;4.03;1.60;;;;;;;;;;4993575;28;20205;-59
2023/07/15 11:25:57;;;;;;;3.15;1.60;;;;;;;;;;4990420;28;20228;-60
2023/07/15 11:28:22;;;;;;;2.95;1.50;;;;;;;;;;4984964;28;20220;-59
2023/07/15 11:30:48;;;;;;;3.80;1.58;;;;;;;;;;4990292;28;20575;-60
2023/07/15 11:33:13;;;;;;;4.25;1.70;;;;;;;;;;4988814;28;20583;-59
2023/07/15 11:35:40;;;;;;;3.40;1.55;;;;;;;;;;4990134;28;20243;-59
2023/07/15 11:38:25;;;;;;;4.70;1.60;;;;;;;;;;4988630;28;20585;-59
2023/07/15 11:40:53;;;;;;;6.90;1.90;;;;;;;;;;4980552;28;20228;-59
2023/07/15 11:43:18;;;;;;;4.63;1.73;;;;;;;;;;4974864;28;20264;-59
2023/07/15 11:45:44;;;;;;;4.47;1.60;;;;;;;;;;4977927;28;20764;-60
2023/07/15 11:48:09;;;;;;;6.28;1.60;;;;;;;;;;4979139;28;20256;-59
2023/07/15 11:50:35;;;;;;;4.80;1.80;;;;;;;;;;4983660;28;20255;-59
2023/07/15 11:53:00;;;;;;;5.03;1.73;;;;;;;;;;4984107;28;20649;-59
2023/07/15 11:55:25;;;;;;;5.60;1.80;;;;;;;;;;4982775;28;20663;-59
2023/07/15 11:57:51;;;;;;;2.95;1.52;;;;;;;;;;4982253;28;20220;-59
2023/07/15 12:00:25;;;;;;;5.05;1.60;;;;;;;;;;4984032;28;20754;-59
2023/07/15 12:02:50;;;;;;;3.38;1.83;;;;;;;;;;4982224;28;20224;-59
2023/07/15 12:05:16;;;;;;;4.50;2.10;;;;;;;;;;4974505;28;20218;-59
2023/07/15 12:07:46;;;;;;;4.43;1.73;;;;;;;;;;4975776;28;20229;-59
2023/07/15 12:10:11;;;;;;;5.70;1.60;;;;;;;;;;4978246;28;20387;-59
2023/07/15 12:12:37;;;;;;;4.20;2.00;;;;;;;;;;4983192;28;20607;-59
2023/07/15 12:15:03;;;;;;;5.38;1.80;;;;;;;;;;4981564;28;20236;-60
2023/07/15 12:17:28;;;;;;;6.47;1.88;;;;;;;;;;4984116;28;20206;-59
2023/07/15 12:19:54;;;;;;;2.97;1.55;;;;;;;;;;4984435;28;20228;-59
2023/07/15 12:22:19;;;;;;;5.65;1.98;;;;;;;;;;4981262;28;20213;-59
2023/07/15 12:24:44;;;;;;;4.28;1.67;;;;;;;;;;4983970;28;20747;-59
2023/07/15 12:27:10;;;;;;;6.00;1.73;;;;;;;;;;4975650;28;21094;-59
2023/07/15 12:29:35;;;;;;;3.10;1.85;;;;;;;;;;4974728;28;20661;-60
2023/07/15 12:32:00;;;;;;;4.32;1.80;;;;;;;;;;4976155;28;20308;-61
2023/07/15 12:34:26;;;;;;;4.85;1.60;;;;;;;;;;4983094;28;20383;-60
2023/07/15 12:36:51;;;;;;;6.60;2.20;;;;;;;;;;4983569;28;20711;-60
2023/07/15 12:39:16;;;;;;;3.08;1.73;;;;;;;;;;4980873;28;20243;-60
2023/07/15 12:41:42;;;;;;;5.03;2.00;;;;;;;;;;4982367;28;20665;-60
2023/07/15 12:44:12;;;;;;;4.80;2.10;;;;;;;;;;4982196;28;20319;-60
2023/07/15 12:46:37;;;;;;;3.25;1.70;;;;;;;;;;4981583;28;20728;-60
2023/07/15 12:49:02;;;;;;;4.32;1.75;;;;;;;;;;4977967;28;20228;-60
2023/07/15 12:51:27;;;;;;;3.25;1.70;;;;;;;;;;4975572;28;20228;-60
2023/07/15 12:53:53;;;;;;;4.50;1.80;;;;;;;;;;4975240;28;20252;-60
2023/07/15 12:56:21;;;;;;;4.22;1.70;;;;;;;;;;4978526;28;20249;-60
2023/07/15 12:58:46;;;;;;;4.78;1.70;;;;;;;;;;4983149;28;20215;-60
2023/07/15 13:01:12;;;;;;;4.22;1.77;;;;;;;;;;4982633;28;20360;-59
2023/07/15 13:03:37;;;;;;;4.65;1.77;;;;;;;;;;4981350;28;20780;-60
2023/07/15 13:06:03;;;;;;;5.97;1.95;;;;;;;;;;4982300;28;20213;-60
2023/07/15 13:08:28;;;;;;;3.13;1.67;;;;;;;;;;4983074;28;20637;-60
2023/07/15 13:10:53;;;;;;;4.93;1.92;;;;;;;;;;4979284;28;20231;-60
2023/07/15 13:13:19;;;;;;;2.33;1.63;;;;;;;;;;4973276;28;20209;-59
2023/07/15 13:15:45;;;;;;;5.93;1.90;;;;;;;;;;4975299;28;20625;-60
2023/07/15 13:18:11;;;;;;;5.90;1.75;;;;;;;;;;4976366;28;20271;-60
2023/07/15 13:20:36;;;;;;;5.40;2.13;;;;;;;;;;4982082;28;20225;-60
2023/07/15 13:23:02;;;;;;;4.90;1.95;;;;;;;;;;4982383;28;20217;-60
2023/07/15 13:25:27;;;;;;;3.00;1.77;;;;;;;;;;4983402;28;20221;-60
2023/07/15 13:27:52;;;;;;;2.58;1.65;;;;;;;;;;4984907;28;20225;-60
2023/07/15 13:30:17;;;;;;;6.28;1.90;;;;;;;;;;4980734;28;20578;-60
2023/07/15 13:32:43;;;;;;;5.78;2.00;;;;;;;;;;4982558;28;20224;-60
2023/07/15 13:35:08;;;;;;;3.92;1.90;;;;;;;;;;4974681;28;20221;-61
2023/07/15 13:37:34;;;;;;;5.45;2.00;;;;;;;;;;4973316;28;20842;-60
2023/07/15 13:39:59;;;;;;;4.90;1.90;;;;;;;;;;4975013;28;20216;-60
2023/07/15 13:42:24;;;;;;;4.93;2.20;;;;;;;;;;4981559;28;20221;-59
2023/07/15 13:44:50;;;;;;;4.43;1.90;;;;;;;;;;4985468;28;20224;-60
2023/07/15 13:47:15;;;;;;;5.43;2.10;;;;;;;;;;4980859;28;20642;-60
2023/07/15 13:49:41;;;;;;;4.88;2.10;;;;;;;;;;4983304;28;20221;-60
2023/07/15 13:52:06;;;;;;;5.90;1.90;;;;;;;;;;4979876;28;20212;-60
2023/07/15 13:54:31;;;;;;;4.80;2.08;;;;;;;;;;4981400;28;20209;-60
2023/07/15 13:56:57;;;;;;;4.28;1.92;;;;;;;;;;4977645;28;20225;-60
2023/07/15 13:59:22;;;;;;;3.95;2.13;;;;;;;;;;4973264;28;20692;-60
2023/07/15 14:01:48;;;;;;;5.10;2.05;;;;;;;;;;4974056;28;20763;-60
2023/07/15 14:04:13;;;;;;;4.20;2.00;;;;;;;;;;4978506;28;20225;-60
2023/07/15 14:06:40;;;;;;;4.32;1.80;;;;;;;;;;4982605;28;20630;-60
2023/07/15 14:09:05;;;;;;;6.90;2.20;;;;;;;;;;4979664;28;20221;-59
2023/07/15 14:11:31;;;;;;;5.38;2.20;;;;;;;;;;4981582;28;20216;-59
2023/07/15 14:13:57;;;;;;;5.82;2.00;;;;;;;;;;4982292;28;20217;-59
2023/07/15 14:16:22;;;;;;;4.22;2.03;;;;;;;;;;4979897;28;20216;-59
2023/07/15 14:18:48;;;;;;;4.30;2.08;;;;;;;;;;4982947;28;20568;-59
2023/07/15 14:21:13;;;;;;;3.95;1.80;;;;;;;;;;4978031;28;20213;-59
2023/07/15 14:23:38;;;;;;;4.32;1.77;;;;;;;;;;4977903;28;20457;-59
2023/07/15 14:26:04;;;;;;;5.70;2.05;;;;;;;;;;4983209;28;20217;-59
2023/07/15 14:28:29;;;;;;;6.47;1.98;;;;;;;;;;4983750;28;20246;-59
2023/07/15 14:30:54;;;;;;;4.07;1.73;;;;;;;;;;4986724;28;20217;-59
2023/07/15 14:33:20;;;;;;;4.05;1.88;;;;;;;;;;4959196;28;20217;-58
2023/07/15 14:35:45;;;;;;;3.22;1.70;;;;;;;;;;4983106;28;20220;-58